Time;durP1;ratioP1;P1;durP2;ratioP2;P2;SDS_P1;SDS_P2;PMS_P1;PMS_P2;Temp;Humidity;BMP_temperature;BMP_pressure;BME280_temperature;BME280_humidity;BME280_pressure;Samples;Min_cycle;Max_cycle;Signal;HPM_P1;HPM_P2
2023/12/24 00:00:01;;;;;;;1.63;0.87;;;;;;;8.03;68.06;96066.28;4965869;28;20185;-71
2023/12/24 00:02:27;;;;;;;1.40;0.90;;;;;;;7.95;67.34;96068.31;4966773;28;20755;-70
2023/12/24 00:04:52;;;;;;;2.97;0.80;;;;;;;7.88;68.65;96066.00;4963464;28;20720;-71
2023/12/24 00:07:17;;;;;;;3.40;0.80;;;;;;;8.08;67.19;96060.88;4965076;28;20188;-73
2023/12/24 00:09:43;;;;;;;3.33;1.00;;;;;;;7.95;67.96;96055.25;4966750;28;20186;-70
2023/12/24 00:12:08;;;;;;;3.10;0.90;;;;;;;7.83;67.61;96059.19;4963907;28;20210;-71
2023/12/24 00:14:34;;;;;;;1.00;0.80;;;;;;;7.88;67.67;96063.41;4966723;28;20169;-72
2023/12/24 00:16:59;;;;;;;1.10;0.80;;;;;;;7.92;67.73;96067.59;4966889;28;20174;-72
2023/12/24 00:19:24;;;;;;;2.00;1.17;;;;;;;7.98;67.82;96068.19;4966826;28;20718;-71
2023/12/24 00:21:50;;;;;;;1.77;1.00;;;;;;;7.88;67.86;96050.31;4966781;28;20186;-72
2023/12/24 00:24:16;;;;;;;1.40;0.87;;;;;;;7.83;68.70;96066.19;4967204;28;20252;-71
2023/12/24 00:26:41;;;;;;;1.77;1.00;;;;;;;7.89;69.01;96070.31;4965746;28;20488;-72
2023/12/24 00:29:07;;;;;;;2.83;1.03;;;;;;;7.93;67.72;96064.91;4964746;28;20182;-72
2023/12/24 00:31:32;;;;;;;2.90;1.00;;;;;;;7.85;68.80;96070.44;4967027;28;20174;-71
2023/12/24 00:33:58;;;;;;;2.10;1.00;;;;;;;7.82;69.15;96073.16;4967494;28;20277;-71
2023/12/24 00:36:23;;;;;;;2.97;0.80;;;;;;;7.79;68.96;96065.44;4966716;28;20602;-71
2023/12/24 00:38:49;;;;;;;1.40;0.80;;;;;;;7.76;69.75;96068.16;4966108;28;20213;-72
2023/12/24 00:41:16;;;;;;;2.30;1.07;;;;;;;7.72;69.58;96071.78;4966663;28;20247;-71
2023/12/24 00:43:42;;;;;;;1.00;0.70;;;;;;;7.75;69.76;96068.25;4966489;28;20210;-71
2023/12/24 00:46:07;;;;;;;1.80;0.80;;;;;;;7.85;68.61;96069.59;4963861;28;20468;-72
2023/12/24 00:48:32;;;;;;;1.13;0.80;;;;;;;7.81;69.68;96078.44;4964619;28;20562;-73
2023/12/24 00:50:58;;;;;;;1.87;0.80;;;;;;;7.79;68.64;96070.66;4968548;28;20259;-72
2023/12/24 00:53:23;;;;;;;1.27;0.80;;;;;;;7.77;69.86;96069.00;4963831;28;20201;-72
2023/12/24 00:55:48;;;;;;;1.27;0.90;;;;;;;7.80;69.61;96075.00;4966312;28;20722;-71
2023/12/24 00:58:14;;;;;;;1.37;0.90;;;;;;;7.84;69.05;96076.59;4965784;28;20182;-71
2023/12/24 01:00:40;;;;;;;1.30;0.90;;;;;;;7.88;69.50;96086.91;4968633;28;20525;-70
2023/12/24 01:03:05;;;;;;;2.90;1.00;;;;;;;7.91;68.82;96089.38;4970360;28;20540;-69
2023/12/24 01:05:31;;;;;;;7.70;1.30;;;;;;;7.71;69.58;96088.41;4969618;28;20205;-68
2023/12/24 01:07:56;;;;;;;1.07;0.70;;;;;;;7.80;70.04;96077.59;4968471;28;20908;-67
2023/12/24 01:10:21;;;;;;;1.10;0.90;;;;;;;7.84;69.01;96083.53;4969804;28;21129;-69
2023/12/24 01:12:47;;;;;;;1.10;0.80;;;;;;;7.81;68.75;96081.06;4969535;28;20201;-69
2023/12/24 01:15:12;;;;;;;1.37;0.90;;;;;;;7.68;69.40;96087.66;4968501;28;20265;-68
2023/12/24 01:17:38;;;;;;;1.53;0.80;;;;;;;7.88;69.13;96077.28;4968808;28;20188;-68
2023/12/24 01:20:12;;;;;;;2.83;0.80;;;;;;;7.82;69.86;96070.56;4969291;28;20181;-68
2023/12/24 01:22:38;;;;;;;4.63;2.90;;;;;;;7.84;68.92;96055.69;4969692;28;20205;-68
2023/12/24 01:25:03;;;;;;;2.50;1.43;;;;;;;7.87;69.82;96065.16;4970164;28;20778;-69
2023/12/24 01:27:29;;;;;;;1.00;0.80;;;;;;;7.90;68.92;96056.34;4969260;28;20200;-68
2023/12/24 01:29:55;;;;;;;1.13;0.80;;;;;;;7.85;69.30;96064.38;4971156;28;20433;-69
2023/12/24 01:32:21;;;;;;;1.53;0.87;;;;;;;7.82;68.91;96060.09;4970360;28;20225;-69
2023/12/24 01:34:46;;;;;;;1.17;0.83;;;;;;;7.69;69.90;96068.47;4971648;28;20735;-68
2023/12/24 01:37:11;;;;;;;1.10;0.77;;;;;;;7.75;70.06;96058.66;4972401;28;20272;-67
2023/12/24 01:39:37;;;;;;;1.20;0.80;;;;;;;7.73;69.34;96057.84;4968872;28;20178;-69
2023/12/24 01:42:02;;;;;;;2.10;1.00;;;;;;;7.77;69.66;96063.78;4970978;28;20198;-69
2023/12/24 01:44:28;;;;;;;3.37;0.80;;;;;;;7.71;69.74;96070.09;4967921;28;20640;-69
2023/12/24 01:46:53;;;;;;;3.13;0.90;;;;;;;7.83;68.96;96074.00;4968435;28;20212;-68
2023/12/24 01:49:19;;;;;;;1.93;0.90;;;;;;;7.85;69.27;96077.44;4967852;28;20556;-68
2023/12/24 01:51:44;;;;;;;1.87;0.80;;;;;;;7.80;69.81;96076.75;4968264;28;20208;-68
2023/12/24 01:54:11;;;;;;;1.37;1.10;;;;;;;7.90;68.81;96072.03;4969021;28;20686;-69
2023/12/24 01:56:39;;;;;;;2.53;0.87;;;;;;;7.77;69.49;96069.88;4966947;28;20182;-68
2023/12/24 01:59:05;;;;;;;2.80;0.80;;;;;;;7.78;69.50;96070.72;4968075;28;20441;-73
2023/12/24 02:01:31;;;;;;;1.10;0.90;;;;;;;7.66;70.27;96072.06;4967146;28;20433;-73
2023/12/24 02:03:56;;;;;;;1.50;0.80;;;;;;;7.70;69.53;96065.81;4968262;28;20456;-73
2023/12/24 02:06:24;;;;;;;1.00;0.70;;;;;;;7.89;69.09;96067.69;4967475;28;20673;-71
2023/12/24 02:08:49;;;;;;;1.57;0.97;;;;;;;7.76;69.55;96062.94;4966503;28;20236;-70
2023/12/24 02:11:16;;;;;;;2.23;1.00;;;;;;;7.89;68.74;96073.78;4965496;28;20915;-72
2023/12/24 02:13:41;;;;;;;1.13;0.80;;;;;;;7.92;68.68;96062.38;4962853;28;20558;-73
2023/12/24 02:16:08;;;;;;;1.40;0.93;;;;;;;7.80;69.22;96055.84;4962551;28;20429;-73
2023/12/24 02:18:34;;;;;;;1.10;0.80;;;;;;;7.87;69.01;96043.41;4967939;28;20181;-71
2023/12/24 02:21:03;;;;;;;1.23;0.80;;;;;;;7.88;68.62;96039.88;4966368;28;20455;-72
2023/12/24 02:23:29;;;;;;;1.90;1.10;;;;;;;7.81;68.79;96041.88;4978508;28;20209;-73
2023/12/24 02:26:00;;;;;;;21.37;2.87;;;;;;;7.84;68.30;96033.91;4967803;28;20473;-73
2023/12/24 02:28:26;;;;;;;4.83;1.00;;;;;;;7.88;68.63;96029.44;4967644;28;20440;-72
2023/12/24 02:30:56;;;;;;;4.30;1.00;;;;;;;7.87;68.87;96025.97;4964960;28;20448;-72
2023/12/24 02:33:24;;;;;;;4.03;0.90;;;;;;;7.95;67.94;96025.66;4962502;28;20456;-69
2023/12/24 02:35:50;;;;;;;2.17;1.00;;;;;;;7.81;69.36;96026.19;4968462;28;20429;-73
2023/12/24 02:38:15;;;;;;;6.77;1.20;;;;;;;7.77;68.64;96022.00;4966864;28;20916;-71
2023/12/24 02:40:40;;;;;;;1.20;0.70;;;;;;;7.79;68.54;96025.41;4966568;28;20445;-73
2023/12/24 02:43:08;;;;;;;1.10;0.70;;;;;;;7.83;69.00;96021.78;4967585;28;20240;-72
2023/12/24 02:45:33;;;;;;;1.20;0.93;;;;;;;8.01;68.38;96007.97;4968191;28;20719;-73
2023/12/24 02:47:59;;;;;;;1.00;0.70;;;;;;;7.80;67.93;96007.06;4967919;28;20474;-70
2023/12/24 02:50:24;;;;;;;1.00;0.70;;;;;;;7.82;68.84;95999.19;4966451;28;20258;-71
2023/12/24 02:52:49;;;;;;;1.23;0.80;;;;;;;7.87;68.14;95996.41;4968291;28;20201;-72
2023/12/24 02:55:15;;;;;;;1.10;0.80;;;;;;;7.77;68.39;95993.25;4968081;28;20180;-71
2023/12/24 02:57:40;;;;;;;1.50;1.10;;;;;;;7.87;67.71;95996.41;4967994;28;20190;-72
2023/12/24 03:00:08;;;;;;;1.30;0.90;;;;;;;7.81;68.52;96000.91;4966313;28;20190;-73
2023/12/24 03:02:34;;;;;;;1.00;0.80;;;;;;;7.93;67.74;95990.91;4965356;28;20221;-73
2023/12/24 03:04:59;;;;;;;2.40;1.00;;;;;;;7.94;68.24;96003.06;4967263;28;20465;-72
2023/12/24 03:07:25;;;;;;;1.73;0.80;;;;;;;7.87;67.46;96007.69;4967883;28;20598;-72
2023/12/24 03:09:50;;;;;;;2.17;0.90;;;;;;;7.83;67.97;96003.47;4966491;28;20894;-71
2023/12/24 03:12:17;;;;;;;2.17;0.83;;;;;;;7.82;68.06;96007.88;4965374;28;20232;-73
2023/12/24 03:14:42;;;;;;;1.00;0.70;;;;;;;7.85;67.83;95999.91;4964918;28;20212;-70
2023/12/24 03:17:08;;;;;;;1.20;0.90;;;;;;;7.90;68.16;96006.72;4965605;28;20460;-71
2023/12/24 03:19:33;;;;;;;3.60;0.80;;;;;;;7.81;68.29;96008.75;4966129;28;20191;-71
2023/12/24 03:21:59;;;;;;;1.10;0.83;;;;;;;7.77;68.41;96004.59;4962410;28;20205;-71
2023/12/24 03:24:24;;;;;;;1.10;0.87;;;;;;;7.74;68.62;96002.06;4957228;28;20265;-72
2023/12/24 03:26:50;;;;;;;1.03;0.70;;;;;;;7.88;68.34;96001.53;4966782;28;20745;-71
2023/12/24 03:29:16;;;;;;;4.73;0.97;;;;;;;7.84;67.66;96005.16;4967105;28;20193;-71
2023/12/24 03:31:41;;;;;;;1.10;0.87;;;;;;;7.76;67.76;96022.91;4964625;28;20276;-73
2023/12/24 03:34:07;;;;;;;1.60;0.90;;;;;;;7.82;67.51;96030.53;4965531;28;20440;-72
2023/12/24 03:36:34;;;;;;;1.97;0.97;;;;;;;7.75;68.43;96023.84;4966746;28;20572;-71
2023/12/24 03:39:00;;;;;;;1.67;0.80;;;;;;;7.85;67.26;96033.84;4966848;28;20433;-71
2023/12/24 03:41:26;;;;;;;0.93;0.80;;;;;;;7.89;67.24;96044.19;4966630;28;20190;-72
2023/12/24 03:43:51;;;;;;;1.53;1.00;;;;;;;7.91;67.60;96034.53;4965922;28;20208;-74
2023/12/24 03:46:18;;;;;;;1.17;1.00;;;;;;;7.93;67.73;96037.94;4966492;28;20216;-72
2023/12/24 03:48:44;;;;;;;1.20;0.80;;;;;;;8.00;67.16;96039.38;4966639;28;20188;-71
2023/12/24 03:51:11;;;;;;;0.90;0.70;;;;;;;8.01;67.39;96039.34;4963377;28;20485;-71
2023/12/24 03:53:37;;;;;;;3.10;0.80;;;;;;;7.91;67.58;96030.16;4966324;28;20201;-72
2023/12/24 03:56:06;;;;;;;1.27;0.90;;;;;;;7.97;67.65;96034.28;4963341;28;21010;-73
2023/12/24 03:58:31;;;;;;;1.40;1.10;;;;;;;7.82;68.58;96041.81;4966655;28;20443;-72
2023/12/24 04:00:56;;;;;;;2.73;0.83;;;;;;;7.93;67.77;96038.78;4966361;28;20448;-73
2023/12/24 04:03:22;;;;;;;1.10;0.87;;;;;;;7.87;67.60;96040.81;4964967;28;20267;-72
2023/12/24 04:05:48;;;;;;;1.00;0.80;;;;;;;8.03;66.60;96036.66;4966571;28;20205;-72
2023/12/24 04:08:14;;;;;;;4.83;0.80;;;;;;;7.97;67.29;96027.31;4964599;28;20205;-72
2023/12/24 04:10:40;;;;;;;2.97;1.00;;;;;;;7.95;67.14;96030.88;4964748;28;20192;-71
2023/12/24 04:13:06;;;;;;;1.00;0.80;;;;;;;7.87;67.55;96025.97;4964797;28;20456;-73
2023/12/24 04:15:32;;;;;;;0.90;0.70;;;;;;;7.88;67.31;96016.38;4963959;28;20177;-70
2023/12/24 04:17:58;;;;;;;3.73;1.00;;;;;;;7.99;67.40;96014.19;4966231;28;20445;-72
2023/12/24 04:20:23;;;;;;;1.00;0.80;;;;;;;7.96;67.13;96015.16;4966659;28;20866;-73
2023/12/24 04:22:48;;;;;;;1.20;0.90;;;;;;;8.02;66.63;96014.06;4965902;28;20205;-71
2023/12/24 04:25:14;;;;;;;3.93;0.90;;;;;;;7.92;67.34;96021.41;4966388;28;20248;-72
2023/12/24 04:27:39;;;;;;;1.30;0.80;;;;;;;7.85;67.38;96036.47;4963888;28;20189;-72
2023/12/24 04:30:05;;;;;;;2.67;1.00;;;;;;;7.79;68.36;96047.16;4965284;28;20688;-71
2023/12/24 04:32:31;;;;;;;1.70;0.80;;;;;;;7.78;67.62;96044.63;4966640;28;20205;-72
2023/12/24 04:34:56;;;;;;;1.00;0.70;;;;;;;7.80;67.87;96035.81;4966720;28;20443;-72
2023/12/24 04:37:22;;;;;;;1.83;0.93;;;;;;;7.99;66.71;96022.03;4967708;28;20217;-72
2023/12/24 04:39:47;;;;;;;2.13;0.90;;;;;;;8.03;67.50;96020.97;4967194;28;20195;-71
2023/12/24 04:42:13;;;;;;;3.60;0.93;;;;;;;7.95;67.18;96010.00;4968677;28;20260;-72
2023/12/24 04:44:38;;;;;;;1.33;0.90;;;;;;;7.92;67.88;96004.91;4965668;28;20187;-73
2023/12/24 04:47:06;;;;;;;1.20;0.90;;;;;;;7.82;67.66;96004.41;4970831;28;20205;-72
2023/12/24 04:49:31;;;;;;;3.60;0.80;;;;;;;7.91;68.05;95995.34;4969899;28;20228;-71
2023/12/24 04:51:57;;;;;;;1.20;1.00;;;;;;;7.89;67.49;95991.94;4971339;28;20444;-72
2023/12/24 04:54:23;;;;;;;3.83;1.00;;;;;;;7.89;68.03;95995.41;4971087;28;20228;-72
2023/12/24 04:56:49;;;;;;;1.87;0.77;;;;;;;7.79;68.07;95996.66;4974516;28;20460;-73
2023/12/24 04:59:14;;;;;;;1.33;1.00;;;;;;;7.96;67.69;95991.66;4978824;28;20195;-72
2023/12/24 05:01:40;;;;;;;2.40;1.20;;;;;;;7.88;67.44;95998.94;4977250;28;20927;-73
2023/12/24 05:04:06;;;;;;;1.70;0.87;;;;;;;7.81;67.53;95993.09;4964362;28;20186;-72
2023/12/24 05:06:32;;;;;;;2.00;1.03;;;;;;;7.77;68.42;96006.31;4969133;28;20210;-72
2023/12/24 05:08:57;;;;;;;2.60;0.90;;;;;;;7.80;67.63;96001.84;4975075;28;20950;-73
2023/12/24 05:11:22;;;;;;;3.93;1.10;;;;;;;7.84;67.40;96008.66;4975558;28;20190;-72
2023/12/24 05:13:48;;;;;;;1.17;0.90;;;;;;;7.89;68.42;96002.38;4975402;28;20351;-70
2023/12/24 05:16:13;;;;;;;1.73;1.20;;;;;;;7.89;67.91;95994.53;4972032;28;20186;-71
2023/12/24 05:18:39;;;;;;;1.63;1.00;;;;;;;7.85;67.51;95983.38;4969773;28;20235;-74
2023/12/24 05:21:04;;;;;;;3.63;1.63;;;;;;;7.87;67.69;95980.72;4972076;28;20201;-70
2023/12/24 05:23:30;;;;;;;1.73;0.73;;;;;;;7.89;68.03;95971.03;4971228;28;20281;-69
2023/12/24 05:25:55;;;;;;;2.80;0.93;;;;;;;7.74;68.58;95965.50;4963053;28;20570;-73
2023/12/24 05:28:21;;;;;;;1.10;0.80;;;;;;;7.77;68.04;95952.34;4972180;28;20189;-71
2023/12/24 05:30:47;;;;;;;2.27;0.83;;;;;;;7.97;67.16;95945.47;4969997;28;20641;-73
2023/12/24 05:33:12;;;;;;;1.57;0.70;;;;;;;7.89;67.85;95950.13;4968262;28;20213;-70
2023/12/24 05:35:38;;;;;;;3.60;0.90;;;;;;;7.86;67.87;95945.88;4968011;28;20437;-69
2023/12/24 05:38:04;;;;;;;3.97;1.27;;;;;;;7.79;67.90;95947.03;4968389;28;20186;-71
2023/12/24 05:40:30;;;;;;;3.03;1.23;;;;;;;7.86;67.72;95948.50;4968190;28;20191;-71
2023/12/24 05:42:55;;;;;;;1.73;1.00;;;;;;;7.86;68.63;95945.88;4966612;28;20205;-72
2023/12/24 05:45:20;;;;;;;2.00;1.13;;;;;;;7.94;68.12;95946.44;4966159;28;20212;-71
2023/12/24 05:47:46;;;;;;;1.10;0.90;;;;;;;7.95;67.69;95955.13;4968227;28;20189;-71
2023/12/24 05:50:12;;;;;;;1.27;0.90;;;;;;;7.98;68.21;95950.59;4966790;28;20212;-71
2023/12/24 05:52:39;;;;;;;1.50;1.00;;;;;;;7.89;67.80;95965.81;4966720;28;20305;-71
2023/12/24 05:55:06;;;;;;;5.23;1.10;;;;;;;8.03;67.50;95971.31;4968209;28;20777;-71
2023/12/24 05:57:31;;;;;;;1.50;0.90;;;;;;;7.91;67.96;95971.81;4966283;28;20453;-71
2023/12/24 05:59:56;;;;;;;4.10;1.30;;;;;;;8.06;67.73;95972.06;4967120;28;20449;-73
2023/12/24 06:02:22;;;;;;;1.23;0.90;;;;;;;7.97;68.18;95968.97;4967457;28;20311;-73
2023/12/24 06:04:47;;;;;;;2.80;1.10;;;;;;;7.98;68.18;95963.66;4966851;28;20201;-72
2023/12/24 06:07:12;;;;;;;2.43;1.10;;;;;;;7.96;67.68;95968.13;4962584;28;20205;-71
2023/12/24 06:09:38;;;;;;;3.37;1.50;;;;;;;8.00;68.32;95961.00;4958596;28;20193;-71
2023/12/24 06:12:04;;;;;;;1.30;1.00;;;;;;;7.94;68.80;95958.66;4967151;28;20208;-70
2023/12/24 06:14:30;;;;;;;1.27;0.93;;;;;;;8.00;68.76;95948.78;4966574;28;20185;-72
2023/12/24 06:16:55;;;;;;;1.33;0.80;;;;;;;7.83;69.08;95956.47;4968051;28;21055;-72
2023/12/24 06:19:21;;;;;;;1.87;1.10;;;;;;;7.95;68.53;95950.75;4967575;28;20702;-73
2023/12/24 06:21:46;;;;;;;1.47;0.83;;;;;;;7.97;67.77;95942.84;4965559;28;20332;-73
2023/12/24 06:24:12;;;;;;;2.63;1.10;;;;;;;8.07;67.70;95946.78;4963882;28;20574;-72
2023/12/24 06:26:37;;;;;;;3.03;1.20;;;;;;;7.98;68.11;95929.69;4967896;28;20205;-72
2023/12/24 06:29:03;;;;;;;5.63;0.90;;;;;;;8.06;68.44;95918.94;4961650;28;20184;-71
2023/12/24 06:31:28;;;;;;;2.37;1.47;;;;;;;7.99;68.91;95914.91;4962842;28;20559;-72
2023/12/24 06:33:54;;;;;;;1.60;1.00;;;;;;;7.97;69.27;95927.16;4960613;28;20236;-71
2023/12/24 06:36:19;;;;;;;4.20;1.20;;;;;;;8.10;67.92;95930.97;4966188;28;20178;-72
2023/12/24 06:38:45;;;;;;;1.67;1.33;;;;;;;8.04;68.79;95937.28;4964367;28;20534;-73
2023/12/24 06:41:10;;;;;;;1.57;1.17;;;;;;;8.06;68.36;95940.69;4961907;28;20237;-73
2023/12/24 06:43:37;;;;;;;7.07;1.10;;;;;;;8.08;68.52;95943.25;4960135;28;21107;-72
2023/12/24 06:46:03;;;;;;;7.40;1.47;;;;;;;8.11;68.63;95939.66;4964983;28;20582;-71
2023/12/24 06:48:28;;;;;;;5.00;1.10;;;;;;;8.07;67.85;95942.38;4965452;28;20441;-71
2023/12/24 06:50:53;;;;;;;5.47;1.33;;;;;;;8.08;68.22;95932.81;4963705;28;20181;-72
2023/12/24 06:53:19;;;;;;;4.20;1.10;;;;;;;8.10;67.95;95925.72;4962301;28;20276;-72
2023/12/24 06:55:44;;;;;;;4.40;1.17;;;;;;;8.16;68.41;95932.47;4958923;28;20189;-70
2023/12/24 06:58:10;;;;;;;1.37;1.10;;;;;;;8.16;67.52;95935.94;4965424;28;20173;-72
2023/12/24 07:00:35;;;;;;;2.83;1.10;;;;;;;8.11;67.76;95927.44;4966748;28;20287;-73
2023/12/24 07:03:00;;;;;;;1.63;1.10;;;;;;;7.99;69.04;95927.97;4964510;28;20224;-72
2023/12/24 07:05:27;;;;;;;2.60;1.10;;;;;;;8.20;68.58;95915.78;4965580;28;20210;-72
2023/12/24 07:07:53;;;;;;;1.30;1.17;;;;;;;8.12;68.82;95912.59;4969300;28;20182;-73
2023/12/24 07:10:19;;;;;;;1.00;0.90;;;;;;;8.19;67.91;95893.97;4969285;28;20440;-71
2023/12/24 07:12:44;;;;;;;1.40;1.00;;;;;;;8.14;67.68;95911.63;4958093;28;20395;-71
2023/12/24 07:15:10;;;;;;;1.10;0.83;;;;;;;8.19;67.74;95899.22;4965096;28;20189;-71
2023/12/24 07:17:35;;;;;;;1.27;1.10;;;;;;;8.23;67.54;95926.09;4966687;28;20181;-71
2023/12/24 07:20:00;;;;;;;3.93;1.17;;;;;;;8.20;68.23;95921.00;4966661;28;20205;-72
2023/12/24 07:22:26;;;;;;;19.40;3.20;;;;;;;8.23;67.67;95913.84;4965394;28;20227;-72
2023/12/24 07:24:51;;;;;;;2.70;1.30;;;;;;;8.17;67.83;95908.91;4963222;28;20181;-72
2023/12/24 07:27:17;;;;;;;2.13;1.00;;;;;;;8.16;68.19;95907.19;4964136;28;20504;-72
2023/12/24 07:29:43;;;;;;;7.83;1.30;;;;;;;8.24;67.74;95907.72;4965612;28;20193;-71
2023/12/24 07:32:09;;;;;;;3.67;1.17;;;;;;;8.30;67.04;95914.44;4959651;28;20268;-72
2023/12/24 07:34:34;;;;;;;2.80;1.27;;;;;;;8.27;67.98;95915.44;4965095;28;21142;-73
2023/12/24 07:37:00;;;;;;;1.20;0.80;;;;;;;8.18;67.19;95917.59;4965607;28;20190;-71
2023/12/24 07:39:25;;;;;;;2.27;1.10;;;;;;;8.10;67.70;95920.50;4962619;28;20245;-71
2023/12/24 07:41:50;;;;;;;1.10;0.70;;;;;;;8.18;67.05;95914.97;4966714;28;20189;-72
2023/12/24 07:44:16;;;;;;;1.80;0.97;;;;;;;8.16;67.72;95909.81;4958093;28;20194;-73
2023/12/24 07:46:42;;;;;;;1.10;0.80;;;;;;;8.26;67.44;95902.41;4964298;28;20635;-74
2023/12/24 07:49:08;;;;;;;1.20;1.00;;;;;;;8.23;67.65;95918.25;4960987;28;20553;-72
2023/12/24 07:51:33;;;;;;;1.00;0.70;;;;;;;8.27;66.52;95904.97;4963922;28;20448;-71
2023/12/24 07:53:59;;;;;;;1.37;1.00;;;;;;;8.24;66.75;95899.88;4965605;28;20213;-74
2023/12/24 07:56:25;;;;;;;1.40;0.90;;;;;;;8.23;67.12;95900.78;4964990;28;20711;-73
2023/12/24 07:58:50;;;;;;;1.33;1.03;;;;;;;8.16;67.27;95907.19;4965986;28;20519;-71
2023/12/24 08:01:15;;;;;;;4.60;1.13;;;;;;;8.21;67.42;95894.78;4966146;28;20185;-71
2023/12/24 08:03:41;;;;;;;1.20;1.00;;;;;;;8.26;67.30;95894.56;4963189;28;20240;-73
2023/12/24 08:06:06;;;;;;;3.53;0.90;;;;;;;8.14;67.34;95898.56;4966718;28;20213;-72
2023/12/24 08:08:32;;;;;;;1.43;1.00;;;;;;;8.20;67.71;95895.69;4964585;28;20632;-73
2023/12/24 08:10:57;;;;;;;11.20;1.30;;;;;;;8.21;67.66;95892.16;4969304;28;20272;-72
2023/12/24 08:13:23;;;;;;;5.70;1.10;;;;;;;8.32;66.62;95883.88;4966486;28;20228;-71
2023/12/24 08:15:48;;;;;;;1.40;0.97;;;;;;;8.38;66.25;95877.50;4971377;28;20268;-71
2023/12/24 08:18:14;;;;;;;3.23;1.20;;;;;;;8.27;67.39;95880.59;4968256;28;20220;-71
2023/12/24 08:20:39;;;;;;;7.63;1.30;;;;;;;8.25;66.77;95872.81;4971394;28;20193;-72
2023/12/24 08:23:07;;;;;;;1.00;0.80;;;;;;;8.44;65.98;95883.38;4969849;28;20197;-73
2023/12/24 08:25:32;;;;;;;1.40;0.90;;;;;;;8.39;66.43;95900.16;4967697;28;20202;-72
2023/12/24 08:27:59;;;;;;;1.30;1.00;;;;;;;8.32;66.36;95883.88;4972770;28;20883;-72
2023/12/24 08:30:25;;;;;;;1.20;1.00;;;;;;;8.34;66.31;95881.16;4976554;28;20196;-72
2023/12/24 08:32:50;;;;;;;3.13;1.50;;;;;;;8.36;66.44;95892.41;4975678;28;20801;-72
2023/12/24 08:35:16;;;;;;;2.20;1.43;;;;;;;8.44;66.13;95895.59;4973599;28;20204;-72
2023/12/24 08:37:41;;;;;;;3.77;1.83;;;;;;;8.34;67.33;95887.28;4975859;28;20261;-71
2023/12/24 08:40:07;;;;;;;4.00;1.43;;;;;;;8.41;66.16;95882.63;4976459;28;20178;-72
2023/12/24 08:42:33;;;;;;;1.93;1.37;;;;;;;8.12;67.23;95882.09;4961403;28;20198;-72
2023/12/24 08:44:58;;;;;;;15.83;2.00;;;;;;;8.30;66.99;95883.06;4972005;28;20816;-72
2023/12/24 08:47:23;;;;;;;4.27;1.57;;;;;;;8.23;67.26;95892.94;4970814;28;20216;-71
2023/12/24 08:49:49;;;;;;;1.60;1.20;;;;;;;8.33;66.82;95889.94;4968945;28;20200;-71
2023/12/24 08:52:14;;;;;;;1.53;1.43;;;;;;;8.31;67.47;95889.16;4970036;28;20205;-71
2023/12/24 08:54:40;;;;;;;1.20;0.90;;;;;;;8.33;66.96;95884.72;4970968;28;20186;-71
2023/12/24 08:57:07;;;;;;;2.10;1.20;;;;;;;8.27;67.56;95894.53;4967109;28;20190;-72
2023/12/24 08:59:32;;;;;;;3.00;1.20;;;;;;;8.25;66.84;95898.97;4962481;28;20212;-70
2023/12/24 09:01:57;;;;;;;19.60;1.87;;;;;;;8.30;67.40;95897.94;4963651;28;20846;-68
2023/12/24 09:04:23;;;;;;;5.50;2.03;;;;;;;8.97;72.42;95902.81;4966824;28;20232;-68
2023/12/24 09:06:48;;;;;;;8.20;2.40;;;;;;;8.67;66.62;95900.66;4969237;28;20347;-68
2023/12/24 09:09:13;;;;;;;2.30;1.43;;;;;;;8.51;66.54;95899.63;4961756;28;20190;-69
2023/12/24 09:11:40;;;;;;;3.73;1.20;;;;;;;8.53;67.25;95912.63;4964657;28;20235;-67
2023/12/24 09:14:06;;;;;;;9.30;1.40;;;;;;;8.38;66.96;95901.03;4970206;28;20547;-66
2023/12/24 09:16:32;;;;;;;2.30;1.10;;;;;;;8.34;67.90;95902.97;4967764;28;20181;-70
2023/12/24 09:18:58;;;;;;;1.73;1.10;;;;;;;8.44;67.25;95906.06;4967115;28;20688;-68
2023/12/24 09:21:23;;;;;;;2.60;1.30;;;;;;;8.30;67.83;95911.00;4968989;28;20196;-69
2023/12/24 09:23:48;;;;;;;2.20;0.90;;;;;;;8.37;67.96;95905.44;4969563;28;20217;-69
2023/12/24 09:26:14;;;;;;;1.73;1.20;;;;;;;8.28;67.37;95913.66;4967673;28;20273;-68
2023/12/24 09:28:39;;;;;;;3.83;1.43;;;;;;;8.42;67.31;95921.78;4967810;28;20173;-69
2023/12/24 09:31:04;;;;;;;1.87;1.10;;;;;;;8.42;67.52;95911.34;4969010;28;20185;-68
2023/12/24 09:33:32;;;;;;;1.37;1.27;;;;;;;8.37;67.47;95905.44;4968546;28;20724;-68
2023/12/24 09:35:57;;;;;;;7.17;0.90;;;;;;;8.42;67.57;95910.50;4966767;28;20182;-71
2023/12/24 09:38:22;;;;;;;1.43;1.03;;;;;;;8.48;67.37;95918.09;4961251;28;20880;-69
2023/12/24 09:40:48;;;;;;;1.90;1.30;;;;;;;8.37;68.55;95920.28;4966428;28;20272;-69
2023/12/24 09:43:13;;;;;;;2.40;1.53;;;;;;;8.41;67.69;95922.72;4960851;28;20217;-68
2023/12/24 09:45:39;;;;;;;2.33;1.23;;;;;;;8.53;67.48;95925.69;4966998;28;20209;-66
2023/12/24 09:48:04;;;;;;;3.03;1.20;;;;;;;8.38;67.91;95927.19;4957103;28;20194;-69
2023/12/24 09:50:30;;;;;;;4.03;1.00;;;;;;;8.47;67.88;95926.81;4964039;28;20281;-69
2023/12/24 09:52:56;;;;;;;1.27;1.17;;;;;;;8.55;68.34;95923.88;4963914;28;20308;-67
2023/12/24 09:55:22;;;;;;;4.60;1.23;;;;;;;8.50;67.54;95929.31;4969798;28;20944;-70
2023/12/24 09:57:47;;;;;;;1.20;1.10;;;;;;;8.52;68.08;95921.41;4967699;28;20510;-70
2023/12/24 10:00:16;;;;;;;2.63;1.23;;;;;;;8.53;68.35;95910.88;4967994;28;20220;-68
2023/12/24 10:02:41;;;;;;;2.33;1.30;;;;;;;8.64;67.95;95916.47;4967743;28;20545;-69
2023/12/24 10:05:07;;;;;;;2.27;1.57;;;;;;;8.58;68.10;95905.47;4965011;28;20463;-72
2023/12/24 10:07:40;;;;;;;1.80;1.00;;;;;;;8.59;67.57;95902.75;4956822;28;20554;-71
2023/12/24 10:10:08;;;;;;;8.00;1.43;;;;;;;8.68;67.96;95893.66;4962879;28;20173;-71
2023/12/24 10:12:33;;;;;;;5.43;1.30;;;;;;;8.75;67.74;95874.16;4965840;28;20838;-71
2023/12/24 10:15:00;;;;;;;2.50;1.30;;;;;;;8.69;69.21;95879.66;4968436;28;20558;-68
2023/12/24 10:17:36;;;;;;;3.00;1.30;;;;;;;8.66;69.23;95883.25;4966226;28;20587;-67
2023/12/24 10:20:08;;;;;;;3.60;1.43;;;;;;;8.70;69.26;95878.75;4959954;28;20428;-70
2023/12/24 10:22:34;;;;;;;2.93;1.40;;;;;;;8.61;69.72;95882.63;4963398;28;20458;-69
2023/12/24 10:25:05;;;;;;;1.40;1.17;;;;;;;8.57;70.57;95867.97;4967277;28;20807;-69
2023/12/24 10:27:31;;;;;;;1.03;0.93;;;;;;;8.55;70.73;95888.13;4966093;28;20656;-68
2023/12/24 10:30:26;;;;;;;4.50;1.03;;;;;;;8.48;70.76;95884.94;4958487;28;20479;-73
2023/12/24 10:33:06;;;;;;;2.03;1.17;;;;;;;8.56;70.55;95892.44;4960588;28;20472;-73
2023/12/24 10:35:31;;;;;;;4.40;1.53;;;;;;;8.46;70.90;95884.16;4967379;28;20798;-73
2023/12/24 10:38:11;;;;;;;6.93;1.60;;;;;;;8.56;70.97;95862.81;4961038;28;20444;-72
2023/12/24 10:40:37;;;;;;;2.00;1.80;;;;;;;8.65;70.49;95844.09;4968316;28;20680;-75
2023/12/24 10:43:03;;;;;;;2.80;1.00;;;;;;;8.73;69.77;95852.44;4962913;28;20463;-71
2023/12/24 10:45:28;;;;;;;1.57;0.97;;;;;;;8.74;69.73;95855.91;4959053;28;20464;-69
2023/12/24 10:47:54;;;;;;;1.97;1.40;;;;;;;8.60;70.43;95844.31;4960209;28;20188;-72
2023/12/24 10:50:20;;;;;;;1.80;1.40;;;;;;;8.63;70.15;95851.16;4965527;28;20533;-70
2023/12/24 10:52:46;;;;;;;3.00;1.40;;;;;;;8.64;70.23;95864.16;4961782;28;20306;-73
2023/12/24 10:55:11;;;;;;;5.33;1.40;;;;;;;8.47;71.19;95871.91;4962952;28;20433;-72
2023/12/24 10:57:43;;;;;;;1.40;1.13;;;;;;;8.55;70.96;95876.78;4967423;28;20550;-72
2023/12/24 11:00:12;;;;;;;9.57;1.23;;;;;;;8.64;70.56;95868.53;4979690;28;20200;-72
2023/12/24 11:02:42;;;;;;;6.60;1.70;;;;;;;8.73;70.46;95875.97;4964129;28;20947;-71
2023/12/24 11:05:07;;;;;;;2.33;1.30;;;;;;;8.76;70.50;95875.84;4965805;28;20424;-72
2023/12/24 11:07:45;;;;;;;5.67;1.60;;;;;;;8.74;70.76;95884.66;4955435;28;20572;-70
2023/12/24 11:10:38;;;;;;;3.00;1.73;;;;;;;8.72;70.27;95882.16;4962116;28;20173;-69
2023/12/24 11:13:07;;;;;;;1.90;1.10;;;;;;;8.81;70.38;95876.50;4959098;28;20978;-74
2023/12/24 11:15:43;;;;;;;6.07;1.50;;;;;;;8.92;69.29;95878.63;4959199;28;20481;-71
2023/12/24 11:18:09;;;;;;;1.80;1.10;;;;;;;8.82;69.63;95861.66;4964230;28;22521;-73
2023/12/24 11:20:39;;;;;;;3.17;1.30;;;;;;;9.12;69.04;95862.00;4962121;28;20484;-71
2023/12/24 11:23:05;;;;;;;3.50;1.07;;;;;;;8.99;69.59;95866.09;4962742;28;20816;-72
2023/12/24 11:25:43;;;;;;;3.83;1.20;;;;;;;8.88;69.88;95843.91;4967248;28;20467;-71
2023/12/24 11:28:33;;;;;;;1.40;1.10;;;;;;;8.95;69.81;95857.53;4958473;28;20228;-71
2023/12/24 11:30:58;;;;;;;1.97;0.97;;;;;;;8.94;69.29;95857.63;4964278;28;21967;-71
2023/12/24 11:33:33;;;;;;;14.87;2.53;;;;;;;8.95;69.95;95846.22;4967066;28;20453;-71
2023/12/24 11:36:04;;;;;;;34.87;4.00;;;;;;;8.97;69.34;95840.00;4966001;28;20244;-73